sensor_id;sensor_type;location;lat;lon;timestamp;P1;durP1;ratioP1;P2;durP2;ratioP2
44304;SDS011;30019;50.576;8.568;2023-04-02T00:00:35;4.72;;;3.70;;
44304;SDS011;30019;50.576;8.568;2023-04-02T00:03:02;4.70;;;4.07;;
44304;SDS011;30019;50.576;8.568;2023-04-02T00:10:47;4.87;;;3.72;;
44304;SDS011;30019;50.576;8.568;2023-04-02T00:13:21;3.80;;;3.20;;
44304;SDS011;30019;50.576;8.568;2023-04-02T00:15:49;3.50;;;3.20;;
44304;SDS011;30019;50.576;8.568;2023-04-02T00:18:20;6.65;;;3.25;;
44304;SDS011;30019;50.576;8.568;2023-04-02T00:20:48;4.35;;;3.40;;
44304;SDS011;30019;50.576;8.568;2023-04-02T00:23:17;4.00;;;3.47;;
44304;SDS011;30019;50.576;8.568;2023-04-02T00:25:43;4.78;;;3.70;;
44304;SDS011;30019;50.576;8.568;2023-04-02T00:28:20;4.12;;;3.62;;
44304;SDS011;30019;50.576;8.568;2023-04-02T00:30:48;3.55;;;3.25;;
44304;SDS011;30019;50.576;8.568;2023-04-02T00:33:24;5.25;;;3.78;;
44304;SDS011;30019;50.576;8.568;2023-04-02T00:35:53;4.45;;;3.42;;
44304;SDS011;30019;50.576;8.568;2023-04-02T00:38:28;5.12;;;3.87;;
44304;SDS011;30019;50.576;8.568;2023-04-02T00:41:01;6.37;;;3.78;;
44304;SDS011;30019;50.576;8.568;2023-04-02T00:43:28;6.00;;;4.00;;
44304;SDS011;30019;50.576;8.568;2023-04-02T00:45:59;6.30;;;4.20;;
44304;SDS011;30019;50.576;8.568;2023-04-02T00:50:56;5.68;;;4.12;;
44304;SDS011;30019;50.576;8.568;2023-04-02T00:53:28;5.40;;;4.03;;
44304;SDS011;30019;50.576;8.568;2023-04-02T00:55:56;11.70;;;4.05;;
44304;SDS011;30019;50.576;8.568;2023-04-02T00:58:30;4.10;;;3.70;;
44304;SDS011;30019;50.576;8.568;2023-04-02T01:00:58;4.45;;;3.67;;
44304;SDS011;30019;50.576;8.568;2023-04-02T01:05:59;6.30;;;4.80;;
44304;SDS011;30019;50.576;8.568;2023-04-02T01:08:39;6.28;;;5.20;;
44304;SDS011;30019;50.576;8.568;2023-04-02T01:14:18;5.43;;;4.93;;
44304;SDS011;30019;50.576;8.568;2023-04-02T01:17:09;5.03;;;4.53;;
44304;SDS011;30019;50.576;8.568;2023-04-02T01:20:02;5.20;;;4.60;;
44304;SDS011;30019;50.576;8.568;2023-04-02T01:22:43;5.00;;;4.20;;
44304;SDS011;30019;50.576;8.568;2023-04-02T01:25:18;6.37;;;4.45;;
44304;SDS011;30019;50.576;8.568;2023-04-02T01:27:55;5.05;;;4.30;;
44304;SDS011;30019;50.576;8.568;2023-04-02T01:30:29;6.45;;;4.20;;
44304;SDS011;30019;50.576;8.568;2023-04-02T01:32:58;6.60;;;4.60;;
44304;SDS011;30019;50.576;8.568;2023-04-02T01:35:23;6.80;;;4.75;;
44304;SDS011;30019;50.576;8.568;2023-04-02T01:37:56;5.30;;;4.40;;
44304;SDS011;30019;50.576;8.568;2023-04-02T01:40:38;4.65;;;4.25;;
44304;SDS011;30019;50.576;8.568;2023-04-02T01:45:48;8.05;;;4.57;;
44304;SDS011;30019;50.576;8.568;2023-04-02T01:48:18;6.70;;;4.12;;
44304;SDS011;30019;50.576;8.568;2023-04-02T01:50:48;5.47;;;4.45;;
44304;SDS011;30019;50.576;8.568;2023-04-02T01:53:18;7.50;;;4.18;;
44304;SDS011;30019;50.576;8.568;2023-04-02T01:58:13;5.93;;;4.78;;
44304;SDS011;30019;50.576;8.568;2023-04-02T02:00:55;4.68;;;4.28;;
44304;SDS011;30019;50.576;8.568;2023-04-02T02:03:27;4.00;;;3.60;;
44304;SDS011;30019;50.576;8.568;2023-04-02T02:05:53;4.95;;;4.45;;
44304;SDS011;30019;50.576;8.568;2023-04-02T02:08:36;6.85;;;4.45;;
44304;SDS011;30019;50.576;8.568;2023-04-02T02:11:06;8.93;;;5.22;;
44304;SDS011;30019;50.576;8.568;2023-04-02T02:13:35;8.43;;;5.20;;
44304;SDS011;30019;50.576;8.568;2023-04-02T02:16:02;7.57;;;4.72;;
44304;SDS011;30019;50.576;8.568;2023-04-02T02:18:28;5.60;;;3.78;;
44304;SDS011;30019;50.576;8.568;2023-04-02T02:20:56;4.03;;;3.60;;
44304;SDS011;30019;50.576;8.568;2023-04-02T02:23:24;7.45;;;3.90;;
44304;SDS011;30019;50.576;8.568;2023-04-02T02:25:52;5.45;;;3.90;;
44304;SDS011;30019;50.576;8.568;2023-04-02T02:28:29;9.25;;;4.05;;
44304;SDS011;30019;50.576;8.568;2023-04-02T02:31:11;12.13;;;4.05;;
44304;SDS011;30019;50.576;8.568;2023-04-02T02:33:50;12.90;;;4.03;;
44304;SDS011;30019;50.576;8.568;2023-04-02T02:36:28;6.53;;;4.10;;
44304;SDS011;30019;50.576;8.568;2023-04-02T02:42:03;8.05;;;3.92;;
44304;SDS011;30019;50.576;8.568;2023-04-02T02:44:38;8.98;;;3.92;;
44304;SDS011;30019;50.576;8.568;2023-04-02T02:47:09;4.05;;;3.70;;
44304;SDS011;30019;50.576;8.568;2023-04-02T02:49:39;9.02;;;4.15;;
44304;SDS011;30019;50.576;8.568;2023-04-02T02:54:35;6.75;;;4.45;;
44304;SDS011;30019;50.576;8.568;2023-04-02T02:57:04;9.77;;;4.68;;
44304;SDS011;30019;50.576;8.568;2023-04-02T02:59:34;6.82;;;4.87;;
44304;SDS011;30019;50.576;8.568;2023-04-02T03:02:01;8.18;;;5.60;;
44304;SDS011;30019;50.576;8.568;2023-04-02T03:04:29;11.45;;;6.40;;
44304;SDS011;30019;50.576;8.568;2023-04-02T03:06:59;6.55;;;4.82;;
44304;SDS011;30019;50.576;8.568;2023-04-02T03:15:04;5.05;;;2.67;;
44304;SDS011;30019;50.576;8.568;2023-04-02T03:17:38;2.97;;;2.47;;
44304;SDS011;30019;50.576;8.568;2023-04-02T03:20:18;2.58;;;2.30;;
44304;SDS011;30019;50.576;8.568;2023-04-02T03:23:16;2.58;;;1.52;;
44304;SDS011;30019;50.576;8.568;2023-04-02T03:28:18;0.80;;;0.80;;
44304;SDS011;30019;50.576;8.568;2023-04-02T03:30:48;0.70;;;0.70;;
44304;SDS011;30019;50.576;8.568;2023-04-02T03:33:20;0.55;;;0.55;;
44304;SDS011;30019;50.576;8.568;2023-04-02T03:36:12;0.40;;;0.40;;
44304;SDS011;30019;50.576;8.568;2023-04-02T03:38:45;0.50;;;0.50;;
44304;SDS011;30019;50.576;8.568;2023-04-02T03:41:17;0.52;;;0.52;;
44304;SDS011;30019;50.576;8.568;2023-04-02T03:43:57;1.48;;;0.52;;
44304;SDS011;30019;50.576;8.568;2023-04-02T03:46:30;1.55;;;0.65;;
44304;SDS011;30019;50.576;8.568;2023-04-02T03:49:23;0.65;;;0.65;;
44304;SDS011;30019;50.576;8.568;2023-04-02T03:52:12;0.55;;;0.55;;
44304;SDS011;30019;50.576;8.568;2023-04-02T03:54:40;0.60;;;0.60;;
44304;SDS011;30019;50.576;8.568;2023-04-02T04:00:01;0.52;;;0.52;;
44304;SDS011;30019;50.576;8.568;2023-04-02T04:02:33;1.25;;;0.70;;
44304;SDS011;30019;50.576;8.568;2023-04-02T04:05:04;2.33;;;0.60;;
44304;SDS011;30019;50.576;8.568;2023-04-02T04:07:39;0.73;;;0.73;;
44304;SDS011;30019;50.576;8.568;2023-04-02T04:10:07;0.70;;;0.70;;
44304;SDS011;30019;50.576;8.568;2023-04-02T04:12:47;3.03;;;0.80;;
44304;SDS011;30019;50.576;8.568;2023-04-02T04:15:27;0.73;;;0.73;;
44304;SDS011;30019;50.576;8.568;2023-04-02T04:18:02;0.60;;;0.60;;
44304;SDS011;30019;50.576;8.568;2023-04-02T04:20:46;0.80;;;0.80;;
44304;SDS011;30019;50.576;8.568;2023-04-02T04:31:57;1.00;;;1.00;;
44304;SDS011;30019;50.576;8.568;2023-04-02T04:34:51;1.30;;;1.27;;
44304;SDS011;30019;50.576;8.568;2023-04-02T04:37:25;1.27;;;1.20;;
44304;SDS011;30019;50.576;8.568;2023-04-02T04:40:17;1.08;;;1.08;;
44304;SDS011;30019;50.576;8.568;2023-04-02T04:42:47;1.45;;;1.23;;
44304;SDS011;30019;50.576;8.568;2023-04-02T04:45:22;1.12;;;1.12;;
44304;SDS011;30019;50.576;8.568;2023-04-02T04:48:01;1.10;;;1.10;;
44304;SDS011;30019;50.576;8.568;2023-04-02T04:50:45;0.95;;;0.95;;
44304;SDS011;30019;50.576;8.568;2023-04-02T04:53:22;1.10;;;1.10;;
44304;SDS011;30019;50.576;8.568;2023-04-02T04:55:56;0.80;;;0.80;;
44304;SDS011;30019;50.576;8.568;2023-04-02T04:58:34;1.65;;;0.90;;
44304;SDS011;30019;50.576;8.568;2023-04-02T05:04:10;0.57;;;0.57;;
44304;SDS011;30019;50.576;8.568;2023-04-02T05:06:54;0.90;;;0.90;;
44304;SDS011;30019;50.576;8.568;2023-04-02T05:12:35;2.67;;;0.62;;
44304;SDS011;30019;50.576;8.568;2023-04-02T05:15:33;1.00;;;1.00;;
44304;SDS011;30019;50.576;8.568;2023-04-02T05:21:05;1.05;;;0.73;;
44304;SDS011;30019;50.576;8.568;2023-04-02T05:23:50;0.82;;;0.82;;
44304;SDS011;30019;50.576;8.568;2023-04-02T05:26:24;1.00;;;0.90;;
44304;SDS011;30019;50.576;8.568;2023-04-02T05:29:09;1.05;;;1.05;;
44304;SDS011;30019;50.576;8.568;2023-04-02T05:34:27;1.58;;;1.00;;
44304;SDS011;30019;50.576;8.568;2023-04-02T05:36:56;0.80;;;0.80;;
44304;SDS011;30019;50.576;8.568;2023-04-02T05:39:23;0.70;;;0.70;;
44304;SDS011;30019;50.576;8.568;2023-04-02T05:44:30;0.80;;;0.80;;
44304;SDS011;30019;50.576;8.568;2023-04-02T05:46:58;2.53;;;0.82;;
44304;SDS011;30019;50.576;8.568;2023-04-02T05:49:50;0.90;;;0.90;;
44304;SDS011;30019;50.576;8.568;2023-04-02T05:52:30;0.60;;;0.60;;
44304;SDS011;30019;50.576;8.568;2023-04-02T05:57:38;0.62;;;0.62;;
44304;SDS011;30019;50.576;8.568;2023-04-02T06:00:07;0.85;;;0.85;;
44304;SDS011;30019;50.576;8.568;2023-04-02T06:05:16;0.80;;;0.80;;
44304;SDS011;30019;50.576;8.568;2023-04-02T06:07:50;1.10;;;1.10;;
44304;SDS011;30019;50.576;8.568;2023-04-02T06:10:25;0.85;;;0.85;;
44304;SDS011;30019;50.576;8.568;2023-04-02T06:12:58;1.00;;;0.85;;
44304;SDS011;30019;50.576;8.568;2023-04-02T06:15:29;1.17;;;1.17;;
44304;SDS011;30019;50.576;8.568;2023-04-02T06:17:57;1.17;;;1.12;;
44304;SDS011;30019;50.576;8.568;2023-04-02T06:20:23;0.90;;;0.90;;
44304;SDS011;30019;50.576;8.568;2023-04-02T06:22:50;0.90;;;0.90;;
44304;SDS011;30019;50.576;8.568;2023-04-02T06:25:48;0.90;;;0.90;;
44304;SDS011;30019;50.576;8.568;2023-04-02T06:28:20;0.88;;;0.88;;
44304;SDS011;30019;50.576;8.568;2023-04-02T06:30:52;1.17;;;1.17;;
44304;SDS011;30019;50.576;8.568;2023-04-02T06:33:21;1.45;;;1.35;;
44304;SDS011;30019;50.576;8.568;2023-04-02T06:35:47;1.12;;;1.10;;
44304;SDS011;30019;50.576;8.568;2023-04-02T06:38:19;2.35;;;1.17;;
44304;SDS011;30019;50.576;8.568;2023-04-02T06:43:24;0.82;;;0.82;;
44304;SDS011;30019;50.576;8.568;2023-04-02T06:45:57;1.33;;;1.23;;
44304;SDS011;30019;50.576;8.568;2023-04-02T06:48:26;1.77;;;1.00;;
44304;SDS011;30019;50.576;8.568;2023-04-02T06:50:55;1.00;;;1.00;;
44304;SDS011;30019;50.576;8.568;2023-04-02T06:53:37;1.33;;;1.20;;
44304;SDS011;30019;50.576;8.568;2023-04-02T06:59:02;1.17;;;1.17;;
44304;SDS011;30019;50.576;8.568;2023-04-02T07:01:35;1.10;;;1.00;;
44304;SDS011;30019;50.576;8.568;2023-04-02T07:04:04;0.70;;;0.62;;
44304;SDS011;30019;50.576;8.568;2023-04-02T07:06:30;1.00;;;1.00;;
44304;SDS011;30019;50.576;8.568;2023-04-02T07:08:55;1.00;;;1.00;;
44304;SDS011;30019;50.576;8.568;2023-04-02T07:11:21;0.93;;;0.93;;
44304;SDS011;30019;50.576;8.568;2023-04-02T07:13:47;1.10;;;1.00;;
44304;SDS011;30019;50.576;8.568;2023-04-02T07:16:14;1.20;;;1.10;;
44304;SDS011;30019;50.576;8.568;2023-04-02T07:18:45;1.00;;;1.00;;
44304;SDS011;30019;50.576;8.568;2023-04-02T07:21:11;1.87;;;0.80;;
44304;SDS011;30019;50.576;8.568;2023-04-02T07:23:37;1.92;;;1.08;;
44304;SDS011;30019;50.576;8.568;2023-04-02T07:26:03;0.80;;;0.80;;
44304;SDS011;30019;50.576;8.568;2023-04-02T07:28:30;1.07;;;1.07;;
44304;SDS011;30019;50.576;8.568;2023-04-02T07:30:56;1.10;;;1.00;;
44304;SDS011;30019;50.576;8.568;2023-04-02T07:33:23;1.30;;;1.20;;
44304;SDS011;30019;50.576;8.568;2023-04-02T07:35:51;1.05;;;1.05;;
44304;SDS011;30019;50.576;8.568;2023-04-02T07:38:17;1.17;;;0.90;;
44304;SDS011;30019;50.576;8.568;2023-04-02T07:40:43;0.75;;;0.75;;
44304;SDS011;30019;50.576;8.568;2023-04-02T07:43:09;0.95;;;0.95;;
44304;SDS011;30019;50.576;8.568;2023-04-02T07:45:35;0.95;;;0.95;;
44304;SDS011;30019;50.576;8.568;2023-04-02T07:48:07;0.80;;;0.80;;
44304;SDS011;30019;50.576;8.568;2023-04-02T07:53:00;0.93;;;0.88;;
44304;SDS011;30019;50.576;8.568;2023-04-02T07:55:26;1.30;;;1.20;;
44304;SDS011;30019;50.576;8.568;2023-04-02T07:57:52;0.98;;;0.98;;
44304;SDS011;30019;50.576;8.568;2023-04-02T08:00:22;0.70;;;0.70;;
44304;SDS011;30019;50.576;8.568;2023-04-02T08:02:49;2.30;;;1.20;;
44304;SDS011;30019;50.576;8.568;2023-04-02T08:05:15;1.50;;;1.40;;
44304;SDS011;30019;50.576;8.568;2023-04-02T08:07:42;1.00;;;1.00;;
44304;SDS011;30019;50.576;8.568;2023-04-02T08:10:08;0.90;;;0.90;;
44304;SDS011;30019;50.576;8.568;2023-04-02T08:12:35;1.10;;;1.10;;
44304;SDS011;30019;50.576;8.568;2023-04-02T08:15:01;0.75;;;0.75;;
44304;SDS011;30019;50.576;8.568;2023-04-02T08:17:29;1.70;;;1.15;;
44304;SDS011;30019;50.576;8.568;2023-04-02T08:19:56;1.08;;;1.08;;
44304;SDS011;30019;50.576;8.568;2023-04-02T08:22:26;2.05;;;1.00;;
44304;SDS011;30019;50.576;8.568;2023-04-02T08:24:52;1.30;;;1.30;;
44304;SDS011;30019;50.576;8.568;2023-04-02T08:27:18;1.52;;;1.42;;
44304;SDS011;30019;50.576;8.568;2023-04-02T08:29:44;1.50;;;1.40;;
44304;SDS011;30019;50.576;8.568;2023-04-02T08:32:11;1.45;;;1.35;;
44304;SDS011;30019;50.576;8.568;2023-04-02T08:34:39;1.50;;;1.40;;
44304;SDS011;30019;50.576;8.568;2023-04-02T08:37:05;1.60;;;1.50;;
44304;SDS011;30019;50.576;8.568;2023-04-02T08:39:31;1.42;;;1.33;;
44304;SDS011;30019;50.576;8.568;2023-04-02T08:42:03;1.73;;;1.60;;
44304;SDS011;30019;50.576;8.568;2023-04-02T08:47:52;3.58;;;1.70;;
44304;SDS011;30019;50.576;8.568;2023-04-02T08:50:27;1.90;;;1.55;;
44304;SDS011;30019;50.576;8.568;2023-04-02T08:53:02;1.75;;;1.65;;
44304;SDS011;30019;50.576;8.568;2023-04-02T08:55:33;1.55;;;1.45;;
44304;SDS011;30019;50.576;8.568;2023-04-02T09:01:01;0.90;;;0.90;;
44304;SDS011;30019;50.576;8.568;2023-04-02T09:04:02;1.77;;;1.67;;
44304;SDS011;30019;50.576;8.568;2023-04-02T09:06:22;3.53;;;1.85;;
44304;SDS011;30019;50.576;8.568;2023-04-02T09:08:49;2.08;;;1.60;;
44304;SDS011;30019;50.576;8.568;2023-04-02T09:14:32;2.40;;;2.25;;
44304;SDS011;30019;50.576;8.568;2023-04-02T09:17:11;4.62;;;3.58;;
44304;SDS011;30019;50.576;8.568;2023-04-02T09:20:29;3.12;;;2.83;;
44304;SDS011;30019;50.576;8.568;2023-04-02T09:25:10;3.37;;;2.58;;
44304;SDS011;30019;50.576;8.568;2023-04-02T09:28:03;2.97;;;2.78;;
44304;SDS011;30019;50.576;8.568;2023-04-02T09:31:14;3.90;;;2.70;;
44304;SDS011;30019;50.576;8.568;2023-04-02T09:33:39;2.85;;;2.65;;
44304;SDS011;30019;50.576;8.568;2023-04-02T09:36:06;4.15;;;2.92;;
44304;SDS011;30019;50.576;8.568;2023-04-02T09:38:55;3.03;;;2.73;;
44304;SDS011;30019;50.576;8.568;2023-04-02T09:41:30;2.60;;;2.40;;
44304;SDS011;30019;50.576;8.568;2023-04-02T09:46:49;2.72;;;2.53;;
44304;SDS011;30019;50.576;8.568;2023-04-02T09:49:32;3.53;;;2.60;;
44304;SDS011;30019;50.576;8.568;2023-04-02T09:52:25;2.15;;;1.95;;
44304;SDS011;30019;50.576;8.568;2023-04-02T09:57:40;2.85;;;2.55;;
44304;SDS011;30019;50.576;8.568;2023-04-02T10:02:40;2.42;;;2.22;;
44304;SDS011;30019;50.576;8.568;2023-04-02T10:05:14;2.37;;;1.85;;
44304;SDS011;30019;50.576;8.568;2023-04-02T10:07:47;2.50;;;2.30;;
44304;SDS011;30019;50.576;8.568;2023-04-02T10:16:26;3.45;;;1.90;;
44304;SDS011;30019;50.576;8.568;2023-04-02T10:18:32;1.70;;;1.60;;
44304;SDS011;30019;50.576;8.568;2023-04-02T10:21:05;1.87;;;1.77;;
44304;SDS011;30019;50.576;8.568;2023-04-02T10:23:34;1.65;;;1.55;;
44304;SDS011;30019;50.576;8.568;2023-04-02T10:26:14;1.70;;;1.60;;
44304;SDS011;30019;50.576;8.568;2023-04-02T10:29:05;2.95;;;2.65;;
44304;SDS011;30019;50.576;8.568;2023-04-02T10:41:03;1.70;;;1.60;;
44304;SDS011;30019;50.576;8.568;2023-04-02T10:46:41;1.60;;;1.50;;
44304;SDS011;30019;50.576;8.568;2023-04-02T10:49:33;1.80;;;1.70;;
44304;SDS011;30019;50.576;8.568;2023-04-02T10:52:08;1.90;;;1.80;;
44304;SDS011;30019;50.576;8.568;2023-04-02T10:54:50;1.90;;;1.80;;
44304;SDS011;30019;50.576;8.568;2023-04-02T10:57:37;1.60;;;1.50;;
44304;SDS011;30019;50.576;8.568;2023-04-02T11:02:45;1.70;;;1.60;;
44304;SDS011;30019;50.576;8.568;2023-04-02T11:05:41;1.60;;;1.50;;
44304;SDS011;30019;50.576;8.568;2023-04-02T11:10:45;1.35;;;1.25;;
44304;SDS011;30019;50.576;8.568;2023-04-02T11:13:23;1.60;;;1.50;;
44304;SDS011;30019;50.576;8.568;2023-04-02T11:15:52;1.77;;;1.67;;
44304;SDS011;30019;50.576;8.568;2023-04-02T11:18:20;1.58;;;1.48;;
44304;SDS011;30019;50.576;8.568;2023-04-02T11:20:57;1.60;;;1.50;;
44304;SDS011;30019;50.576;8.568;2023-04-02T11:23:25;1.58;;;1.48;;
44304;SDS011;30019;50.576;8.568;2023-04-02T11:26:25;1.65;;;1.55;;
44304;SDS011;30019;50.576;8.568;2023-04-02T11:28:59;2.65;;;1.37;;
44304;SDS011;30019;50.576;8.568;2023-04-02T11:31:36;1.92;;;1.65;;
44304;SDS011;30019;50.576;8.568;2023-04-02T11:34:02;1.48;;;1.37;;
44304;SDS011;30019;50.576;8.568;2023-04-02T11:42:20;1.20;;;1.05;;
44304;SDS011;30019;50.576;8.568;2023-04-02T11:44:49;1.58;;;1.12;;
44304;SDS011;30019;50.576;8.568;2023-04-02T11:47:16;1.60;;;1.50;;
44304;SDS011;30019;50.576;8.568;2023-04-02T11:52:49;1.20;;;1.10;;
44304;SDS011;30019;50.576;8.568;2023-04-02T11:55:24;5.15;;;1.37;;
44304;SDS011;30019;50.576;8.568;2023-04-02T11:58:04;1.40;;;1.30;;
44304;SDS011;30019;50.576;8.568;2023-04-02T12:11:49;1.55;;;1.30;;
44304;SDS011;30019;50.576;8.568;2023-04-02T12:17:04;1.65;;;1.50;;
44304;SDS011;30019;50.576;8.568;2023-04-02T12:19:37;1.30;;;1.20;;
44304;SDS011;30019;50.576;8.568;2023-04-02T12:22:03;1.65;;;1.55;;
44304;SDS011;30019;50.576;8.568;2023-04-02T12:24:29;1.50;;;1.37;;
44304;SDS011;30019;50.576;8.568;2023-04-02T12:27:09;2.28;;;1.25;;
44304;SDS011;30019;50.576;8.568;2023-04-02T12:29:41;2.17;;;1.62;;
44304;SDS011;30019;50.576;8.568;2023-04-02T12:32:29;2.15;;;1.80;;
44304;SDS011;30019;50.576;8.568;2023-04-02T12:34:54;3.15;;;2.42;;
44304;SDS011;30019;50.576;8.568;2023-04-02T12:37:22;8.30;;;3.47;;
44304;SDS011;30019;50.576;8.568;2023-04-02T12:39:52;2.92;;;2.60;;
44304;SDS011;30019;50.576;8.568;2023-04-02T12:42:32;1.73;;;1.55;;
44304;SDS011;30019;50.576;8.568;2023-04-02T12:45:00;3.60;;;1.80;;
44304;SDS011;30019;50.576;8.568;2023-04-02T12:47:28;3.45;;;2.22;;
44304;SDS011;30019;50.576;8.568;2023-04-02T12:49:54;2.12;;;1.92;;
44304;SDS011;30019;50.576;8.568;2023-04-02T12:52:23;6.18;;;2.17;;
44304;SDS011;30019;50.576;8.568;2023-04-02T12:54:56;2.30;;;2.08;;
44304;SDS011;30019;50.576;8.568;2023-04-02T12:59:49;3.17;;;1.90;;
44304;SDS011;30019;50.576;8.568;2023-04-02T13:02:19;1.90;;;1.80;;
44304;SDS011;30019;50.576;8.568;2023-04-02T13:04:50;1.85;;;1.75;;
44304;SDS011;30019;50.576;8.568;2023-04-02T13:07:18;2.10;;;1.92;;
44304;SDS011;30019;50.576;8.568;2023-04-02T13:09:47;3.00;;;2.10;;
44304;SDS011;30019;50.576;8.568;2023-04-02T13:12:34;6.07;;;2.30;;
44304;SDS011;30019;50.576;8.568;2023-04-02T13:15:08;2.65;;;2.20;;
44304;SDS011;30019;50.576;8.568;2023-04-02T13:18:00;2.25;;;2.03;;
44304;SDS011;30019;50.576;8.568;2023-04-02T13:25:58;4.12;;;2.45;;
44304;SDS011;30019;50.576;8.568;2023-04-02T13:28:35;4.93;;;2.93;;
44304;SDS011;30019;50.576;8.568;2023-04-02T13:31:01;2.15;;;1.80;;
44304;SDS011;30019;50.576;8.568;2023-04-02T13:33:27;5.60;;;3.03;;
44304;SDS011;30019;50.576;8.568;2023-04-02T13:35:52;14.45;;;5.72;;
44304;SDS011;30019;50.576;8.568;2023-04-02T13:38:18;4.62;;;3.58;;
44304;SDS011;30019;50.576;8.568;2023-04-02T13:40:43;2.67;;;2.20;;
44304;SDS011;30019;50.576;8.568;2023-04-02T13:43:19;3.87;;;2.10;;
44304;SDS011;30019;50.576;8.568;2023-04-02T13:45:48;2.70;;;1.95;;
44304;SDS011;30019;50.576;8.568;2023-04-02T13:48:16;2.25;;;2.00;;
44304;SDS011;30019;50.576;8.568;2023-04-02T13:50:42;2.03;;;1.60;;
44304;SDS011;30019;50.576;8.568;2023-04-02T13:53:12;2.62;;;1.77;;
44304;SDS011;30019;50.576;8.568;2023-04-02T13:55:45;2.95;;;2.37;;
44304;SDS011;30019;50.576;8.568;2023-04-02T13:58:11;4.43;;;2.05;;
44304;SDS011;30019;50.576;8.568;2023-04-02T14:00:37;4.35;;;2.45;;
44304;SDS011;30019;50.576;8.568;2023-04-02T14:03:13;3.40;;;2.40;;
44304;SDS011;30019;50.576;8.568;2023-04-02T14:06:03;2.03;;;1.83;;
44304;SDS011;30019;50.576;8.568;2023-04-02T14:11:30;2.30;;;2.00;;
44304;SDS011;30019;50.576;8.568;2023-04-02T14:17:14;4.05;;;2.15;;
44304;SDS011;30019;50.576;8.568;2023-04-02T14:22:49;3.22;;;1.85;;
44304;SDS011;30019;50.576;8.568;2023-04-02T14:26:11;5.03;;;2.10;;
44304;SDS011;30019;50.576;8.568;2023-04-02T14:28:53;3.70;;;1.85;;
44304;SDS011;30019;50.576;8.568;2023-04-02T14:31:26;2.92;;;1.70;;
44304;SDS011;30019;50.576;8.568;2023-04-02T14:34:17;6.97;;;4.15;;
44304;SDS011;30019;50.576;8.568;2023-04-02T14:36:59;3.00;;;1.75;;
44304;SDS011;30019;50.576;8.568;2023-04-02T14:42:14;12.95;;;4.62;;
44304;SDS011;30019;50.576;8.568;2023-04-02T14:44:51;9.38;;;3.12;;
44304;SDS011;30019;50.576;8.568;2023-04-02T14:47:42;8.38;;;3.40;;
44304;SDS011;30019;50.576;8.568;2023-04-02T14:50:12;2.30;;;2.03;;
44304;SDS011;30019;50.576;8.568;2023-04-02T14:52:43;7.45;;;3.72;;
44304;SDS011;30019;50.576;8.568;2023-04-02T14:55:14;6.35;;;2.75;;
44304;SDS011;30019;50.576;8.568;2023-04-02T14:57:50;4.80;;;1.85;;
44304;SDS011;30019;50.576;8.568;2023-04-02T15:05:55;2.47;;;2.17;;
44304;SDS011;30019;50.576;8.568;2023-04-02T15:11:11;3.40;;;2.58;;
44304;SDS011;30019;50.576;8.568;2023-04-02T15:16:31;2.97;;;1.70;;
44304;SDS011;30019;50.576;8.568;2023-04-02T15:19:00;3.20;;;1.98;;
44304;SDS011;30019;50.576;8.568;2023-04-02T15:30:17;1.58;;;1.48;;
44304;SDS011;30019;50.576;8.568;2023-04-02T15:32:50;1.62;;;1.52;;
44304;SDS011;30019;50.576;8.568;2023-04-02T15:35:20;2.80;;;1.77;;
44304;SDS011;30019;50.576;8.568;2023-04-02T15:55:13;10.25;;;4.30;;
44304;SDS011;30019;50.576;8.568;2023-04-02T16:00:55;3.95;;;2.28;;
44304;SDS011;30019;50.576;8.568;2023-04-02T16:03:38;5.53;;;2.65;;
44304;SDS011;30019;50.576;8.568;2023-04-02T16:06:27;4.43;;;2.20;;
44304;SDS011;30019;50.576;8.568;2023-04-02T16:14:13;3.87;;;2.30;;
44304;SDS011;30019;50.576;8.568;2023-04-02T16:16:48;6.05;;;2.42;;
44304;SDS011;30019;50.576;8.568;2023-04-02T16:19:24;2.95;;;1.90;;
44304;SDS011;30019;50.576;8.568;2023-04-02T16:22:01;3.17;;;1.77;;
44304;SDS011;30019;50.576;8.568;2023-04-02T16:24:33;3.62;;;1.92;;
44304;SDS011;30019;50.576;8.568;2023-04-02T16:29:50;3.50;;;2.20;;
44304;SDS011;30019;50.576;8.568;2023-04-02T16:32:37;3.50;;;1.85;;
44304;SDS011;30019;50.576;8.568;2023-04-02T16:35:27;4.57;;;1.50;;
44304;SDS011;30019;50.576;8.568;2023-04-02T16:40:36;1.80;;;1.65;;
44304;SDS011;30019;50.576;8.568;2023-04-02T16:43:21;2.40;;;1.80;;
44304;SDS011;30019;50.576;8.568;2023-04-02T16:48:57;2.28;;;1.50;;
44304;SDS011;30019;50.576;8.568;2023-04-02T16:51:47;3.85;;;1.52;;
44304;SDS011;30019;50.576;8.568;2023-04-02T16:57:28;2.50;;;1.67;;
44304;SDS011;30019;50.576;8.568;2023-04-02T17:02:45;3.58;;;2.40;;
44304;SDS011;30019;50.576;8.568;2023-04-02T17:07:55;4.03;;;2.17;;
44304;SDS011;30019;50.576;8.568;2023-04-02T17:10:29;11.80;;;5.40;;
44304;SDS011;30019;50.576;8.568;2023-04-02T17:18:46;2.00;;;1.87;;
44304;SDS011;30019;50.576;8.568;2023-04-02T17:21:17;2.25;;;1.67;;
44304;SDS011;30019;50.576;8.568;2023-04-02T17:23:50;5.82;;;3.03;;
44304;SDS011;30019;50.576;8.568;2023-04-02T17:26:26;5.37;;;3.17;;
44304;SDS011;30019;50.576;8.568;2023-04-02T17:28:53;3.97;;;2.03;;
44304;SDS011;30019;50.576;8.568;2023-04-02T17:31:25;1.70;;;1.60;;
44304;SDS011;30019;50.576;8.568;2023-04-02T17:33:57;2.62;;;1.90;;
44304;SDS011;30019;50.576;8.568;2023-04-02T17:36:29;5.85;;;1.70;;
44304;SDS011;30019;50.576;8.568;2023-04-02T17:55:02;2.30;;;1.83;;
44304;SDS011;30019;50.576;8.568;2023-04-02T17:57:55;2.67;;;1.65;;
44304;SDS011;30019;50.576;8.568;2023-04-02T18:14:30;1.58;;;1.25;;
44304;SDS011;30019;50.576;8.568;2023-04-02T18:22:42;3.50;;;1.20;;
44304;SDS011;30019;50.576;8.568;2023-04-02T18:25:34;2.40;;;1.20;;
44304;SDS011;30019;50.576;8.568;2023-04-02T18:36:44;4.80;;;1.35;;
44304;SDS011;30019;50.576;8.568;2023-04-02T18:42:15;1.40;;;1.30;;
44304;SDS011;30019;50.576;8.568;2023-04-02T18:48:00;4.40;;;1.40;;
44304;SDS011;30019;50.576;8.568;2023-04-02T18:50:43;2.58;;;1.45;;
44304;SDS011;30019;50.576;8.568;2023-04-02T18:53:17;5.43;;;2.83;;
44304;SDS011;30019;50.576;8.568;2023-04-02T18:56:03;2.53;;;1.90;;
44304;SDS011;30019;50.576;8.568;2023-04-02T19:01:03;1.60;;;1.50;;
44304;SDS011;30019;50.576;8.568;2023-04-02T19:03:35;4.82;;;2.33;;
44304;SDS011;30019;50.576;8.568;2023-04-02T19:06:08;4.55;;;1.77;;
44304;SDS011;30019;50.576;8.568;2023-04-02T19:08:50;4.85;;;3.03;;
44304;SDS011;30019;50.576;8.568;2023-04-02T19:11:22;2.62;;;1.45;;
44304;SDS011;30019;50.576;8.568;2023-04-02T19:16:53;3.50;;;1.70;;
44304;SDS011;30019;50.576;8.568;2023-04-02T19:19:28;2.12;;;1.40;;
44304;SDS011;30019;50.576;8.568;2023-04-02T19:22:19;2.65;;;1.52;;
44304;SDS011;30019;50.576;8.568;2023-04-02T19:33:58;1.30;;;1.20;;
44304;SDS011;30019;50.576;8.568;2023-04-02T19:41:53;2.58;;;1.00;;
44304;SDS011;30019;50.576;8.568;2023-04-02T19:44:20;2.30;;;1.33;;
44304;SDS011;30019;50.576;8.568;2023-04-02T19:46:46;4.35;;;1.45;;
44304;SDS011;30019;50.576;8.568;2023-04-02T19:49:13;3.37;;;1.58;;
44304;SDS011;30019;50.576;8.568;2023-04-02T19:51:41;3.58;;;1.83;;
44304;SDS011;30019;50.576;8.568;2023-04-02T19:54:07;3.65;;;1.87;;
44304;SDS011;30019;50.576;8.568;2023-04-02T19:56:33;2.78;;;1.50;;
44304;SDS011;30019;50.576;8.568;2023-04-02T19:58:59;2.40;;;1.48;;
44304;SDS011;30019;50.576;8.568;2023-04-02T20:01:24;1.35;;;1.15;;
44304;SDS011;30019;50.576;8.568;2023-04-02T20:03:50;3.00;;;2.00;;
44304;SDS011;30019;50.576;8.568;2023-04-02T20:06:15;2.90;;;1.30;;
44304;SDS011;30019;50.576;8.568;2023-04-02T20:08:41;3.42;;;1.40;;
44304;SDS011;30019;50.576;8.568;2023-04-02T20:11:07;3.58;;;1.23;;
44304;SDS011;30019;50.576;8.568;2023-04-02T20:13:32;1.62;;;1.25;;
44304;SDS011;30019;50.576;8.568;2023-04-02T20:15:59;2.37;;;1.42;;
44304;SDS011;30019;50.576;8.568;2023-04-02T20:18:26;5.00;;;1.40;;
44304;SDS011;30019;50.576;8.568;2023-04-02T20:20:53;2.28;;;1.40;;